createdAt,value
2022-11-15T00:01:09.978Z,6.02
2022-11-15T00:03:37.906Z,6.06
2022-11-15T00:06:06.754Z,6.01
2022-11-15T00:08:34.187Z,5.96
2022-11-15T00:11:05.114Z,5.93
2022-11-15T00:13:33.081Z,5.99
2022-11-15T00:16:02.073Z,6.02
2022-11-15T00:18:30.178Z,6.00
2022-11-15T00:20:58.265Z,6.05
2022-11-15T00:23:25.824Z,6.01
2022-11-15T00:25:58.808Z,5.87
2022-11-15T00:28:28.358Z,6.02
2022-11-15T00:30:56.061Z,5.97
2022-11-15T00:33:23.669Z,6.03
2022-11-15T00:35:51.299Z,6.08
2022-11-15T00:38:18.906Z,6.16
2022-11-15T00:40:46.491Z,6.22
2022-11-15T00:43:14.040Z,6.23
2022-11-15T00:45:42.962Z,6.30
2022-11-15T00:48:11.713Z,6.26
2022-11-15T00:50:39.207Z,6.14
2022-11-15T00:53:06.781Z,6.22
2022-11-15T00:55:34.355Z,6.31
2022-11-15T00:58:01.979Z,6.21
2022-11-15T01:00:29.599Z,6.29
2022-11-15T01:02:58.665Z,6.29
2022-11-15T01:05:26.235Z,6.26
2022-11-15T01:07:53.827Z,6.33
2022-11-15T01:10:21.702Z,6.38
2022-11-15T01:12:49.597Z,6.32
2022-11-15T01:15:17.358Z,6.36
2022-11-15T01:17:44.981Z,6.35
2022-11-15T01:20:14.358Z,6.31
2022-11-15T01:22:41.979Z,6.40
2022-11-15T01:25:09.595Z,6.32
2022-11-15T01:27:37.170Z,6.41
2022-11-15T01:30:05.784Z,6.41
2022-11-15T01:32:33.685Z,6.48
2022-11-15T01:35:01.254Z,6.46
2022-11-15T01:37:30.237Z,6.47
2022-11-15T01:39:57.845Z,6.50
2022-11-15T01:42:25.508Z,6.56
2022-11-15T01:44:55.750Z,6.58
2022-11-15T01:47:26.944Z,6.66
2022-11-15T01:50:00.076Z,6.65
2022-11-15T01:52:31.475Z,6.71
2022-11-15T01:55:04.125Z,6.70
2022-11-15T01:57:32.216Z,6.91
2022-11-15T02:00:03.527Z,6.87
2022-11-15T02:02:31.154Z,6.88
2022-11-15T02:04:58.781Z,6.96
2022-11-15T02:07:27.267Z,6.95
2022-11-15T02:09:57.129Z,6.97
2022-11-15T02:12:25.215Z,7.01
2022-11-15T02:14:55.691Z,7.02
2022-11-15T02:17:48.312Z,7.04
2022-11-15T02:20:52.234Z,7.13
2022-11-15T02:23:55.625Z,7.22
2022-11-15T02:27:10.794Z,7.23
2022-11-15T02:29:59.761Z,7.28
2022-11-15T02:32:36.127Z,7.39
2022-11-15T02:35:13.805Z,7.44
2022-11-15T02:37:46.817Z,7.44
2022-11-15T02:40:24.087Z,7.45
2022-11-15T02:43:15.586Z,7.43
2022-11-15T02:45:50.251Z,7.50
2022-11-15T02:48:20.402Z,7.52
2022-11-15T02:50:49.067Z,7.56
2022-11-15T02:53:17.160Z,7.59
2022-11-15T02:55:48.730Z,7.62
2022-11-15T02:58:56.433Z,7.68
2022-11-15T03:01:36.858Z,7.71
2022-11-15T03:04:21.409Z,7.75
2022-11-15T03:06:53.092Z,7.76
2022-11-15T03:09:30.973Z,7.76
2022-11-15T03:12:05.292Z,7.82
2022-11-15T03:14:39.299Z,7.83
2022-11-15T03:17:17.644Z,7.88
2022-11-15T03:19:49.264Z,7.90
2022-11-15T03:22:20.748Z,7.89
2022-11-15T03:24:54.374Z,7.93
2022-11-15T03:27:27.369Z,7.99
2022-11-15T03:29:59.950Z,8.01
2022-11-15T03:32:30.823Z,8.00
2022-11-15T03:35:03.542Z,8.01
2022-11-15T03:37:36.937Z,8.05
2022-11-15T03:40:06.056Z,8.06
2022-11-15T03:42:41.692Z,8.12
2022-11-15T03:45:16.517Z,8.11
2022-11-15T03:47:50.230Z,8.16
2022-11-15T03:50:22.297Z,8.23
2022-11-15T03:52:51.753Z,8.31
2022-11-15T03:55:21.862Z,8.35
2022-11-15T03:57:52.432Z,8.40
2022-11-15T04:00:20.274Z,8.40
2022-11-15T04:02:48.061Z,8.55
2022-11-15T04:05:15.873Z,8.59
2022-11-15T04:07:44.939Z,8.63
2022-11-15T04:10:13.722Z,8.64
2022-11-15T04:12:43.980Z,8.68
2022-11-15T04:15:13.988Z,8.66
2022-11-15T04:17:43.399Z,8.74
2022-11-15T04:20:32.403Z,8.74
2022-11-15T04:23:20.498Z,8.70
2022-11-15T04:25:51.276Z,8.78
2022-11-15T04:28:19.291Z,8.82
2022-11-15T04:30:46.930Z,8.80
2022-11-15T04:33:14.680Z,8.79
2022-11-15T04:35:42.372Z,8.86
2022-11-15T04:38:11.786Z,8.86
2022-11-15T04:40:39.687Z,8.90
2022-11-15T04:43:07.248Z,8.92
2022-11-15T04:45:34.904Z,8.92
2022-11-15T04:48:02.473Z,8.93
2022-11-15T04:50:30.119Z,8.97
2022-11-15T04:52:57.724Z,8.96
2022-11-15T04:55:26.614Z,8.98
2022-11-15T04:58:01.468Z,8.96
2022-11-15T05:00:30.424Z,8.97
2022-11-15T05:03:16.801Z,8.99
2022-11-15T05:05:44.347Z,8.98
2022-11-15T05:08:11.900Z,9.01
2022-11-15T05:10:40.798Z,9.02
2022-11-15T05:13:08.362Z,9.07
2022-11-15T05:15:35.948Z,9.09
2022-11-15T05:18:03.580Z,9.12
2022-11-15T05:20:31.126Z,9.18
2022-11-15T05:22:58.680Z,9.25
2022-11-15T05:25:26.585Z,9.28
2022-11-15T05:27:55.819Z,9.33
2022-11-15T05:30:23.551Z,9.34
2022-11-15T05:32:52.003Z,9.38
2022-11-15T05:35:27.915Z,9.40
2022-11-15T05:37:55.570Z,9.44
2022-11-15T05:40:23.344Z,9.45
2022-11-15T05:42:50.964Z,9.51
2022-11-15T05:45:25.439Z,9.54
2022-11-15T05:47:56.207Z,9.57
2022-11-15T05:50:23.920Z,9.65
2022-11-15T05:52:52.045Z,9.65
2022-11-15T05:55:20.088Z,9.61
2022-11-15T05:57:47.646Z,9.64
2022-11-15T06:00:15.746Z,9.69
2022-11-15T06:02:44.737Z,9.73
2022-11-15T06:05:12.348Z,9.74
2022-11-15T06:07:39.921Z,9.75
2022-11-15T06:10:08.790Z,9.81
2022-11-15T06:12:36.324Z,9.81
2022-11-15T06:15:04.042Z,9.84
2022-11-15T06:17:31.702Z,9.86
2022-11-15T06:20:00.610Z,9.88
2022-11-15T06:22:28.141Z,9.88
2022-11-15T06:24:55.776Z,9.89
2022-11-15T06:27:23.659Z,9.88
2022-11-15T06:29:51.578Z,9.87
2022-11-15T06:32:19.149Z,9.87
2022-11-15T06:34:46.675Z,9.89
2022-11-15T06:37:15.636Z,9.88
2022-11-15T06:39:43.156Z,9.87
2022-11-15T06:42:11.039Z,9.85
2022-11-15T06:44:38.580Z,9.87
2022-11-15T06:47:06.196Z,9.86
2022-11-15T06:49:33.769Z,9.88
2022-11-15T06:52:01.374Z,9.88
2022-11-15T06:54:30.367Z,9.87
2022-11-15T06:56:57.959Z,9.88
2022-11-15T06:59:25.554Z,9.92
2022-11-15T07:01:53.059Z,9.87
2022-11-15T07:04:20.630Z,9.91
2022-11-15T07:06:49.180Z,9.94
2022-11-15T07:09:17.188Z,9.99
2022-11-15T07:11:46.099Z,9.96
2022-11-15T07:14:14.640Z,9.91
2022-11-15T07:16:43.146Z,9.91
2022-11-15T07:19:11.959Z,9.88
2022-11-15T07:21:40.214Z,9.91
2022-11-15T07:24:09.295Z,9.71
2022-11-15T07:26:37.896Z,9.81
2022-11-15T07:29:08.026Z,9.86
2022-11-15T07:31:36.617Z,9.81
2022-11-15T07:34:05.149Z,9.83
2022-11-15T07:36:33.743Z,9.79
2022-11-15T07:39:02.337Z,9.76
2022-11-15T07:41:31.809Z,9.78
2022-11-15T07:44:00.288Z,9.74
2022-11-15T07:46:30.146Z,9.76
2022-11-15T07:48:58.656Z,9.79
2022-11-15T07:51:27.337Z,9.79
2022-11-15T07:53:55.803Z,9.79
2022-11-15T07:56:23.535Z,9.78
2022-11-15T07:58:51.177Z,9.79
2022-11-15T08:01:18.878Z,9.76
2022-11-15T08:03:47.911Z,9.77
2022-11-15T08:06:15.483Z,9.73
2022-11-15T08:08:43.061Z,9.75
2022-11-15T08:11:10.735Z,9.76
2022-11-15T08:13:38.314Z,9.77
2022-11-15T08:16:07.289Z,9.84
2022-11-15T08:18:34.873Z,9.90
2022-11-15T08:21:04.001Z,9.81
2022-11-15T08:23:33.181Z,9.84
2022-11-15T08:26:02.615Z,9.91
2022-11-15T08:28:30.174Z,9.84
2022-11-15T08:30:57.816Z,9.91
2022-11-15T08:33:25.956Z,9.87
2022-11-15T08:35:53.803Z,9.88
2022-11-15T08:38:22.849Z,9.91
2022-11-15T08:40:50.868Z,9.90
2022-11-15T08:43:18.466Z,9.93
2022-11-15T08:45:46.929Z,9.93
2022-11-15T08:48:14.535Z,9.94
2022-11-15T08:50:42.146Z,9.90
2022-11-15T08:53:10.302Z,9.92
2022-11-15T08:55:40.756Z,9.95
2022-11-15T08:58:08.874Z,9.94
2022-11-15T09:00:36.563Z,9.96
2022-11-15T09:03:05.970Z,10.00
2022-11-15T09:05:33.728Z,10.03
2022-11-15T09:08:06.537Z,10.14
2022-11-15T09:10:42.767Z,10.15
2022-11-15T09:13:10.334Z,10.16
2022-11-15T09:15:37.913Z,10.14
2022-11-15T09:18:05.629Z,10.23
2022-11-15T09:20:34.117Z,10.16
2022-11-15T09:23:02.762Z,10.35
2022-11-15T09:25:31.118Z,10.35
2022-11-15T09:28:00.226Z,10.25
2022-11-15T09:30:27.889Z,10.31
2022-11-15T09:32:55.584Z,10.44
2022-11-15T09:35:23.245Z,10.47
2022-11-15T09:37:55.956Z,10.49
2022-11-15T09:40:24.502Z,10.53
2022-11-15T09:43:10.490Z,10.57
2022-11-15T09:45:47.392Z,10.64
2022-11-15T09:48:49.868Z,10.66
2022-11-15T09:51:26.050Z,10.69
2022-11-15T09:56:47.250Z,10.80
2022-11-15T09:59:47.117Z,10.81
2022-11-15T10:02:30.905Z,10.86
2022-11-15T10:05:01.112Z,10.89
2022-11-15T10:07:35.212Z,10.78
2022-11-15T10:10:11.261Z,10.82
2022-11-15T10:12:39.239Z,10.73
2022-11-15T10:15:13.885Z,10.82
2022-11-15T10:18:07.919Z,10.92
2022-11-15T10:20:44.408Z,10.78
2022-11-15T10:23:15.105Z,10.77
2022-11-15T10:25:44.421Z,10.79
2022-11-15T10:28:16.485Z,10.81
2022-11-15T10:30:48.357Z,10.84
2022-11-15T10:33:28.181Z,10.95
2022-11-15T10:36:25.685Z,10.91
2022-11-15T10:38:58.389Z,10.85
2022-11-15T10:41:38.727Z,11.03
2022-11-15T10:44:25.162Z,11.05
2022-11-15T10:47:28.164Z,11.04
2022-11-15T10:50:05.038Z,11.00
2022-11-15T10:52:34.846Z,11.07
2022-11-15T10:55:08.461Z,11.09
2022-11-15T10:57:39.394Z,11.17
2022-11-15T11:00:09.691Z,11.07
2022-11-15T11:02:40.884Z,11.24
2022-11-15T11:05:28.343Z,11.22
2022-11-15T11:07:58.571Z,11.32
2022-11-15T11:10:50.473Z,11.27
2022-11-15T11:13:23.936Z,11.36
2022-11-15T11:15:57.928Z,11.28
2022-11-15T11:18:32.058Z,11.38
2022-11-15T11:21:02.777Z,11.38
2022-11-15T11:23:44.273Z,11.35
2022-11-15T11:26:31.620Z,11.35
2022-11-15T11:29:07.532Z,11.31
2022-11-15T11:31:48.108Z,11.36
2022-11-15T11:34:30.205Z,11.30
2022-11-15T11:37:12.025Z,11.42
2022-11-15T11:39:52.787Z,11.47
2022-11-15T11:42:32.179Z,11.37
2022-11-15T11:45:12.268Z,11.45
2022-11-15T11:47:42.562Z,11.48
2022-11-15T11:50:17.302Z,11.58
2022-11-15T11:52:52.987Z,11.61
2022-11-15T11:55:25.544Z,11.53
2022-11-15T11:58:02.843Z,11.61
2022-11-15T12:00:35.122Z,11.69
2022-11-15T12:03:11.298Z,11.54
2022-11-15T12:05:44.003Z,11.59
2022-11-15T12:08:25.463Z,11.63
2022-11-15T12:10:58.571Z,11.72
2022-11-15T12:13:28.235Z,11.60
2022-11-15T12:16:09.030Z,11.67
2022-11-15T12:18:38.332Z,11.79
2022-11-15T12:21:15.872Z,11.80
2022-11-15T12:23:48.383Z,11.64
2022-11-15T12:26:20.878Z,11.71
2022-11-15T12:29:06.904Z,11.67
2022-11-15T12:31:40.376Z,11.68
2022-11-15T12:34:30.843Z,11.82
2022-11-15T12:36:59.788Z,11.87
2022-11-15T12:40:12.147Z,11.80
2022-11-15T12:42:43.774Z,11.82
2022-11-15T12:45:27.906Z,11.87
2022-11-15T12:47:57.505Z,11.83
2022-11-15T12:50:55.557Z,11.93
2022-11-15T12:53:31.934Z,11.96
2022-11-15T12:56:26.604Z,11.91
2022-11-15T12:58:57.694Z,11.98
2022-11-15T13:01:59.135Z,12.10
2022-11-15T13:04:29.657Z,12.11
2022-11-15T13:06:59.730Z,12.04
2022-11-15T13:09:56.600Z,12.03
2022-11-15T13:12:57.090Z,12.07
2022-11-15T13:15:42.505Z,12.04
2022-11-15T13:18:37.950Z,12.00
2022-11-15T13:21:33.561Z,12.06
2022-11-15T13:24:01.164Z,11.96
2022-11-15T13:26:30.285Z,11.91
2022-11-15T13:28:58.063Z,11.96
2022-11-15T13:31:38.464Z,11.86
2022-11-15T13:34:49.246Z,11.82
2022-11-15T13:37:14.620Z,11.75
2022-11-15T13:39:42.154Z,11.72
2022-11-15T13:42:17.076Z,11.78
2022-11-15T13:44:57.690Z,11.74
2022-11-15T13:47:28.850Z,11.65
2022-11-15T13:49:58.898Z,11.60
2022-11-15T13:52:31.073Z,11.57
2022-11-15T13:55:04.512Z,11.57
2022-11-15T13:57:43.800Z,11.51
2022-11-15T14:00:29.204Z,11.61
2022-11-15T14:02:58.881Z,11.55
2022-11-15T14:05:26.839Z,11.41
2022-11-15T14:07:55.540Z,11.42
2022-11-15T14:10:32.920Z,11.39
2022-11-15T14:13:02.558Z,11.39
2022-11-15T14:15:33.475Z,11.32
2022-11-15T14:18:01.977Z,11.47
2022-11-15T14:20:33.458Z,11.32
2022-11-15T14:23:02.912Z,11.41
2022-11-15T14:25:31.644Z,11.38
2022-11-15T14:28:34.301Z,11.26
2022-11-15T14:31:03.160Z,11.26
2022-11-15T14:33:32.701Z,11.21
2022-11-15T14:36:06.317Z,11.31
2022-11-15T14:38:34.630Z,11.29
2022-11-15T14:41:02.433Z,11.40
2022-11-15T14:43:31.431Z,11.36
2022-11-15T14:45:59.024Z,11.27
2022-11-15T14:48:26.586Z,11.16
2022-11-15T14:50:54.200Z,11.23
2022-11-15T14:53:23.040Z,11.23
2022-11-15T14:55:51.172Z,11.23
2022-11-15T14:58:18.760Z,11.20
2022-11-15T15:00:47.849Z,11.16
2022-11-15T15:03:15.479Z,11.19
2022-11-15T15:05:44.636Z,11.14
2022-11-15T15:08:12.835Z,11.18
2022-11-15T15:10:42.640Z,11.15
2022-11-15T15:13:18.546Z,11.12
2022-11-15T15:15:47.930Z,11.22
2022-11-15T15:18:16.292Z,11.23
2022-11-15T15:20:45.483Z,11.11
2022-11-15T15:23:17.966Z,11.10
2022-11-15T15:25:47.134Z,11.10
2022-11-15T15:28:15.240Z,11.16
2022-11-15T15:30:43.133Z,11.07
2022-11-15T15:33:12.061Z,11.14
2022-11-15T15:35:39.738Z,11.12
2022-11-15T15:38:07.279Z,11.15
2022-11-15T15:40:35.313Z,11.13
2022-11-15T15:43:02.887Z,11.13
2022-11-15T15:45:30.636Z,11.13
2022-11-15T15:47:58.363Z,11.15
2022-11-15T15:50:28.755Z,11.16
2022-11-15T15:52:58.858Z,11.13
2022-11-15T15:55:27.061Z,11.11
2022-11-15T15:57:55.404Z,11.08
2022-11-15T16:00:25.607Z,11.12
2022-11-15T16:02:53.504Z,11.13
2022-11-15T16:05:23.026Z,11.18
2022-11-15T16:07:52.121Z,11.22
2022-11-15T16:10:23.133Z,11.17
2022-11-15T16:12:50.984Z,11.17
2022-11-15T16:15:18.942Z,11.12
2022-11-15T16:17:51.744Z,10.93
2022-11-15T16:20:43.008Z,11.07
2022-11-15T16:23:13.734Z,11.07
2022-11-15T16:25:44.265Z,11.17
2022-11-15T16:28:23.167Z,11.09
2022-11-15T16:31:00.596Z,11.08
2022-11-15T16:33:28.288Z,11.12
2022-11-15T16:35:56.034Z,11.16
2022-11-15T16:38:25.054Z,11.09
2022-11-15T16:40:52.625Z,11.09
2022-11-15T16:43:20.311Z,11.17
2022-11-15T16:45:48.066Z,11.17
2022-11-15T16:48:25.054Z,11.14
2022-11-15T16:50:56.503Z,11.23
2022-11-15T16:53:25.764Z,11.19
2022-11-15T16:55:53.448Z,11.12
2022-11-15T16:58:21.014Z,11.14
2022-11-15T17:00:53.178Z,11.05
2022-11-15T17:03:20.908Z,11.02
2022-11-15T17:05:48.551Z,10.96
2022-11-15T17:08:16.347Z,10.96
2022-11-15T17:10:45.292Z,10.93
2022-11-15T17:13:13.455Z,10.87
2022-11-15T17:15:41.326Z,10.85
2022-11-15T17:18:12.304Z,10.66
2022-11-15T17:20:41.753Z,10.59
2022-11-15T17:23:14.387Z,10.51
2022-11-15T17:25:42.208Z,10.38
2022-11-15T17:28:11.268Z,10.37
2022-11-15T17:30:42.741Z,10.27
2022-11-15T17:33:10.321Z,10.23
2022-11-15T17:35:37.947Z,10.18
2022-11-15T17:38:05.470Z,10.13
2022-11-15T17:40:33.139Z,10.12
2022-11-15T17:43:00.732Z,10.05
2022-11-15T17:45:29.646Z,10.01
2022-11-15T17:47:57.177Z,9.98
2022-11-15T17:50:24.804Z,9.93
2022-11-15T17:52:52.424Z,9.97
2022-11-15T17:55:20.058Z,9.89
2022-11-15T17:57:47.681Z,9.87
2022-11-15T18:00:16.377Z,9.96
2022-11-15T18:02:45.364Z,9.89
2022-11-15T18:05:13.028Z,9.83
2022-11-15T18:07:40.648Z,9.86
2022-11-15T18:10:09.510Z,9.84
2022-11-15T18:12:36.923Z,9.80
2022-11-15T18:15:04.986Z,9.81
2022-11-15T18:17:32.603Z,9.82
2022-11-15T18:20:01.706Z,9.77
2022-11-15T18:22:29.286Z,9.87
2022-11-15T18:24:56.846Z,9.86
2022-11-15T18:27:24.366Z,9.86
2022-11-15T18:29:52.025Z,9.81
2022-11-15T18:32:19.628Z,9.78
2022-11-15T18:34:47.294Z,9.73
2022-11-15T18:37:16.236Z,9.75
2022-11-15T18:39:43.890Z,9.79
2022-11-15T18:42:11.494Z,9.84
2022-11-15T18:44:39.074Z,9.85
2022-11-15T18:47:06.696Z,9.91
2022-11-15T18:49:34.316Z,9.89
2022-11-15T18:52:01.985Z,9.92
2022-11-15T18:54:31.741Z,9.90
2022-11-15T18:56:59.668Z,9.90
2022-11-15T18:59:28.102Z,9.88
2022-11-15T19:01:56.898Z,9.88
2022-11-15T19:04:24.398Z,9.92
2022-11-15T19:06:53.360Z,9.94
2022-11-15T19:09:21.176Z,9.96
2022-11-15T19:11:51.417Z,10.02
2022-11-15T19:14:20.020Z,10.01
2022-11-15T19:16:52.008Z,10.03
2022-11-15T19:19:21.256Z,10.01
2022-11-15T19:21:49.082Z,10.01
2022-11-15T19:24:16.632Z,10.03
2022-11-15T19:26:45.115Z,10.07
2022-11-15T19:29:14.814Z,10.09
2022-11-15T19:31:43.051Z,10.12
2022-11-15T19:34:11.205Z,10.05
2022-11-15T19:36:40.447Z,10.12
2022-11-15T19:39:10.101Z,10.15
2022-11-15T19:41:39.072Z,10.09
2022-11-15T19:44:06.755Z,10.15
2022-11-15T19:46:36.039Z,10.15
2022-11-15T19:49:03.812Z,10.19
2022-11-15T19:51:31.789Z,10.13
2022-11-15T19:54:01.256Z,10.20
2022-11-15T19:56:28.869Z,10.22
2022-11-15T19:58:57.400Z,10.22
2022-11-15T20:01:26.847Z,10.26
2022-11-15T20:03:57.780Z,10.25
2022-11-15T20:06:27.142Z,10.26
2022-11-15T20:08:55.054Z,10.27
2022-11-15T20:11:23.078Z,10.27
2022-11-15T20:13:50.967Z,10.28
2022-11-15T20:16:21.079Z,10.28
2022-11-15T20:18:50.026Z,10.35
2022-11-15T20:21:19.586Z,10.32
2022-11-15T20:23:47.612Z,10.30
2022-11-15T20:26:16.227Z,10.36
2022-11-15T20:28:44.680Z,10.37
2022-11-15T20:31:13.064Z,10.37
2022-11-15T20:33:40.748Z,10.38
2022-11-15T20:36:10.966Z,10.49
2022-11-15T20:38:40.260Z,10.46
2022-11-15T20:41:08.080Z,10.55
2022-11-15T20:43:35.668Z,10.51
2022-11-15T20:46:03.226Z,10.45
2022-11-15T20:48:31.380Z,10.45
2022-11-15T20:51:05.799Z,10.43
2022-11-15T20:53:33.826Z,10.49
2022-11-15T20:56:08.289Z,10.56
2022-11-15T20:58:36.759Z,10.56
2022-11-15T21:01:04.563Z,10.55
2022-11-15T21:03:32.655Z,10.57
2022-11-15T21:06:00.897Z,10.54
2022-11-15T21:08:28.459Z,10.59
2022-11-15T21:11:21.956Z,10.61
2022-11-15T21:13:52.218Z,10.69
2022-11-15T21:16:19.766Z,10.67
2022-11-15T21:18:47.355Z,10.65
2022-11-15T21:21:15.048Z,10.64
2022-11-15T21:23:42.632Z,10.64
2022-11-15T21:26:10.261Z,10.69
2022-11-15T21:28:37.840Z,10.66
2022-11-15T21:31:06.963Z,10.66
2022-11-15T21:33:35.425Z,10.69
2022-11-15T21:36:03.032Z,10.72
2022-11-15T21:38:31.336Z,10.77
2022-11-15T21:41:04.612Z,10.73
2022-11-15T21:43:35.107Z,10.74
2022-11-15T21:46:09.060Z,10.80
2022-11-15T21:48:39.582Z,10.75
2022-11-15T21:51:10.475Z,10.82
2022-11-15T21:53:38.249Z,10.87
2022-11-15T21:56:06.724Z,10.84
2022-11-15T21:58:34.917Z,10.84
2022-11-15T22:01:20.757Z,10.82
2022-11-15T22:03:50.000Z,10.83
2022-11-15T22:06:18.414Z,10.88
2022-11-15T22:08:46.893Z,10.90
2022-11-15T22:11:14.669Z,10.88
2022-11-15T22:13:42.645Z,10.84
2022-11-15T22:16:11.188Z,10.85
2022-11-15T22:18:39.694Z,10.90
2022-11-15T22:21:12.234Z,10.87
2022-11-15T22:23:40.539Z,10.91
2022-11-15T22:26:09.361Z,10.87
2022-11-15T22:28:37.645Z,10.85
2022-11-15T22:31:05.591Z,10.89
2022-11-15T22:33:35.006Z,10.86
2022-11-15T22:36:04.332Z,10.89
2022-11-15T22:38:35.387Z,10.89
2022-11-15T22:41:03.637Z,10.86
2022-11-15T22:43:31.508Z,10.91
2022-11-15T22:46:00.554Z,10.86
2022-11-15T22:48:29.845Z,10.87
2022-11-15T22:50:58.104Z,10.82
2022-11-15T22:53:26.425Z,10.90
2022-11-15T22:55:56.744Z,10.86
2022-11-15T22:58:26.088Z,10.82
2022-11-15T23:00:56.436Z,10.88
2022-11-15T23:03:25.701Z,10.88
2022-11-15T23:05:53.821Z,10.88
2022-11-15T23:08:23.139Z,10.85
2022-11-15T23:11:13.847Z,10.89
2022-11-15T23:13:42.756Z,10.90
2022-11-15T23:16:25.526Z,10.83
2022-11-15T23:18:54.725Z,10.91
2022-11-15T23:21:42.757Z,10.93
2022-11-15T23:24:12.677Z,10.89
2022-11-15T23:26:41.448Z,10.92
2022-11-15T23:29:10.740Z,10.90
2022-11-15T23:32:01.474Z,10.88
2022-11-15T23:34:30.979Z,10.92
2022-11-15T23:36:58.764Z,10.90
2022-11-15T23:39:26.354Z,10.87
2022-11-15T23:41:53.960Z,10.88
2022-11-15T23:44:22.973Z,10.95
2022-11-15T23:46:50.570Z,10.90
2022-11-15T23:49:18.117Z,10.89
2022-11-15T23:51:45.792Z,10.95
2022-11-15T23:54:13.703Z,10.91
2022-11-15T23:56:41.471Z,10.79
2022-11-15T23:59:09.235Z,10.78
